Time;durP1;ratioP1;P1;durP2;ratioP2;P2;SDS_P1;SDS_P2;PMS_P1;PMS_P2;Temp;Humidity;BMP_temperature;BMP_pressure;BME280_temperature;BME280_humidity;BME280_pressure;Samples;Min_cycle;Max_cycle;Signal;HPM_P1;HPM_P2
2021/05/25 00:01:10;;;;;;;3.65;1.77;;;12.20;57.20;;;;;;4934848;29;20027;-78
2021/05/25 00:03:36;;;;;;;3.08;1.98;;;12.20;57.30;;;;;;4951678;28;20518;-79
2021/05/25 00:06:05;;;;;;;2.22;1.40;;;12.20;57.30;;;;;;4951848;28;20051;-79
2021/05/25 00:08:31;;;;;;;4.65;2.00;;;12.10;57.20;;;;;;4951032;28;20114;-79
2021/05/25 00:10:57;;;;;;;4.88;1.75;;;12.10;57.30;;;;;;4918577;29;20130;-79
2021/05/25 00:13:23;;;;;;;4.15;1.90;;;12.10;57.30;;;;;;4951158;28;20114;-78
2021/05/25 00:15:53;;;;;;;2.10;1.80;;;12.10;57.40;;;;;;4933563;29;20023;-79
2021/05/25 00:18:20;;;;;;;2.88;2.15;;;12.00;57.30;;;;;;4950987;28;20031;-79
2021/05/25 00:20:47;;;;;;;3.10;2.00;;;12.00;57.30;;;;;;4918176;29;20055;-78
2021/05/25 00:23:13;;;;;;;2.63;1.85;;;11.90;57.20;;;;;;4951546;28;20053;-79
2021/05/25 00:25:40;;;;;;;5.40;2.08;;;11.90;57.30;;;;;;4951282;28;20130;-79
2021/05/25 00:28:05;;;;;;;3.33;1.70;;;11.90;57.30;;;;;;4951458;28;20043;-79
2021/05/25 00:30:32;;;;;;;1.85;1.63;;;11.80;57.20;;;;;;4934540;29;20043;-79
2021/05/25 00:32:58;;;;;;;4.68;2.42;;;11.80;57.30;;;;;;4934030;29;20023;-79
2021/05/25 00:35:26;;;;;;;6.55;1.98;;;11.80;57.40;;;;;;4951297;28;20043;-80
2021/05/25 00:37:52;;;;;;;3.72;2.20;;;11.80;57.40;;;;;;4951261;29;20501;-79
2021/05/25 00:40:18;;;;;;;5.40;1.92;;;11.70;57.30;;;;;;4918258;29;20041;-79
2021/05/25 00:42:45;;;;;;;3.83;2.13;;;11.60;57.20;;;;;;4934017;28;20027;-79
2021/05/25 00:45:15;;;;;;;4.18;2.47;;;11.60;57.30;;;;;;4913408;29;20032;-78
2021/05/25 00:47:43;;;;;;;4.38;2.15;;;11.60;57.30;;;;;;4914161;29;20032;-79
2021/05/25 00:50:16;;;;;;;2.80;1.90;;;11.60;57.40;;;;;;4949616;28;20126;-79
2021/05/25 00:52:44;;;;;;;3.90;1.70;;;11.50;57.30;;;;;;4954457;28;20066;-79
2021/05/25 00:55:14;;;;;;;3.72;2.20;;;11.50;57.30;;;;;;4934093;29;20126;-78
2021/05/25 00:57:42;;;;;;;5.95;2.30;;;11.50;57.40;;;;;;4917889;29;20071;-79
2021/05/25 01:00:08;;;;;;;1.95;1.70;;;11.50;57.50;;;;;;4950448;28;20059;-78
2021/05/25 01:02:35;;;;;;;4.80;2.55;;;11.40;57.30;;;;;;4951560;28;20122;-78
2021/05/25 01:05:02;;;;;;;2.45;1.92;;;11.40;57.40;;;;;;4950310;28;20126;-78
2021/05/25 01:07:28;;;;;;;5.18;2.85;;;11.40;57.50;;;;;;4950688;28;20459;-78
2021/05/25 01:09:57;;;;;;;8.55;2.55;;;11.40;57.50;;;;;;4917442;29;20199;-79
2021/05/25 01:12:26;;;;;;;3.30;1.90;;;11.40;57.60;;;;;;4933144;29;20050;-78
2021/05/25 01:14:56;;;;;;;3.63;2.13;;;11.40;57.60;;;;;;4933433;29;20138;-79
2021/05/25 01:17:23;;;;;;;4.88;2.03;;;11.30;57.40;;;;;;4950458;29;20034;-79
2021/05/25 01:19:49;;;;;;;3.72;2.22;;;11.30;57.50;;;;;;4932015;28;20143;-79
2021/05/25 01:22:15;;;;;;;5.32;2.17;;;11.30;57.50;;;;;;4949881;28;20035;-79
2021/05/25 01:24:41;;;;;;;7.20;2.80;;;11.30;57.50;;;;;;4950108;28;20035;-79
2021/05/25 01:27:08;;;;;;;4.70;2.92;;;11.40;57.70;;;;;;4931902;29;20031;-79
2021/05/25 01:29:36;;;;;;;5.35;2.35;;;11.40;57.80;;;;;;4949915;29;20042;-79
2021/05/25 01:32:02;;;;;;;3.38;2.38;;;11.30;57.70;;;;;;4916983;29;20031;-79
2021/05/25 01:34:28;;;;;;;4.50;2.88;;;11.30;57.70;;;;;;4915096;29;20115;-79
2021/05/25 01:36:54;;;;;;;6.03;2.47;;;11.30;57.60;;;;;;4914664;29;20501;-79
2021/05/25 01:39:20;;;;;;;3.35;2.15;;;11.30;57.70;;;;;;4925204;29;20023;-79
2021/05/25 01:41:51;;;;;;;2.45;1.90;;;11.30;57.70;;;;;;4951172;28;20495;-79
2021/05/25 01:44:17;;;;;;;4.90;2.33;;;11.30;57.80;;;;;;4917798;29;20206;-79
2021/05/25 01:46:45;;;;;;;3.38;2.45;;;11.30;57.80;;;;;;4938396;29;20031;-80
2021/05/25 01:49:12;;;;;;;6.35;2.08;;;11.30;57.80;;;;;;4902087;29;20119;-79
2021/05/25 01:51:43;;;;;;;5.30;2.80;;;11.30;57.80;;;;;;4934665;29;20508;-80
2021/05/25 01:54:10;;;;;;;5.10;2.30;;;11.30;57.80;;;;;;4934734;29;20052;-79
2021/05/25 01:56:36;;;;;;;4.10;2.33;;;11.30;57.90;;;;;;4934668;29;20035;-79
2021/05/25 01:59:02;;;;;;;2.97;2.45;;;11.20;57.70;;;;;;4934263;29;20380;-79
2021/05/25 02:01:29;;;;;;;5.82;2.58;;;11.20;57.70;;;;;;4934438;29;20436;-79
2021/05/25 02:03:55;;;;;;;2.95;1.92;;;11.20;57.70;;;;;;4917552;29;20036;-80
2021/05/25 02:06:21;;;;;;;3.85;2.10;;;11.20;57.80;;;;;;4934243;29;20353;-79
2021/05/25 02:08:47;;;;;;;3.20;2.38;;;11.20;57.80;;;;;;4934386;29;20068;-79
2021/05/25 02:11:13;;;;;;;3.58;2.25;;;11.20;57.80;;;;;;4934495;29;20087;-79
2021/05/25 02:13:39;;;;;;;4.28;2.50;;;11.20;57.90;;;;;;4917188;29;20408;-79
2021/05/25 02:16:08;;;;;;;5.82;2.05;;;11.20;57.90;;;;;;4934209;29;20035;-80
2021/05/25 02:18:43;;;;;;;3.95;2.13;;;11.20;58.00;;;;;;4933818;29;20126;-78
2021/05/25 02:21:11;;;;;;;3.97;1.95;;;11.20;58.10;;;;;;4934187;29;20058;-77
2021/05/25 02:23:37;;;;;;;2.40;2.13;;;11.20;58.00;;;;;;4934213;29;20055;-80
2021/05/25 02:26:05;;;;;;;3.90;2.17;;;11.10;57.80;;;;;;4934402;29;20527;-80
2021/05/25 02:28:31;;;;;;;2.75;2.10;;;11.10;57.90;;;;;;4934218;29;20032;-79
2021/05/25 02:30:57;;;;;;;4.63;2.45;;;11.10;58.50;;;;;;4933740;29;20040;-79
2021/05/25 02:33:24;;;;;;;5.00;2.67;;;11.10;57.90;;;;;;4934238;29;20060;-79
2021/05/25 02:35:53;;;;;;;6.18;2.67;;;11.10;58.00;;;;;;4934196;29;20088;-79
2021/05/25 02:38:20;;;;;;;4.15;2.35;;;11.10;58.00;;;;;;4917015;29;20075;-79
2021/05/25 02:40:47;;;;;;;3.05;2.05;;;11.10;58.00;;;;;;4916955;29;20125;-79
2021/05/25 02:43:15;;;;;;;5.07;2.10;;;11.10;58.00;;;;;;4934177;29;20111;-79
2021/05/25 02:45:42;;;;;;;5.10;1.92;;;11.10;58.00;;;;;;4933806;29;20039;-79
2021/05/25 02:48:08;;;;;;;3.30;2.15;;;11.10;58.10;;;;;;4934091;29;20031;-80
2021/05/25 02:50:35;;;;;;;4.25;1.90;;;11.00;57.90;;;;;;4916724;29;20067;-79
2021/05/25 02:53:01;;;;;;;4.32;2.53;;;11.00;58.00;;;;;;4916990;29;20107;-79
2021/05/25 02:55:31;;;;;;;3.67;2.10;;;11.00;58.00;;;;;;4933848;29;20038;-79
2021/05/25 02:57:58;;;;;;;3.88;2.35;;;11.00;58.10;;;;;;4933885;29;20043;-79
2021/05/25 03:00:28;;;;;;;7.05;2.40;;;10.90;57.90;;;;;;4933848;29;20036;-79
2021/05/25 03:02:54;;;;;;;5.13;2.10;;;10.90;57.90;;;;;;4933971;29;20123;-77
2021/05/25 03:05:23;;;;;;;6.57;2.28;;;10.90;57.90;;;;;;4933858;29;20024;-78
2021/05/25 03:07:50;;;;;;;3.67;2.38;;;10.90;58.00;;;;;;4933699;29;20108;-78
2021/05/25 03:10:18;;;;;;;8.27;2.38;;;10.90;58.00;;;;;;4933553;29;20567;-78
2021/05/25 03:12:44;;;;;;;5.38;2.35;;;10.90;58.10;;;;;;4933896;29;20046;-78
2021/05/25 03:15:16;;;;;;;3.67;2.40;;;10.80;57.90;;;;;;4916506;29;20543;-78
2021/05/25 03:17:43;;;;;;;3.15;2.10;;;10.80;58.00;;;;;;4932805;29;20039;-78
2021/05/25 03:20:12;;;;;;;3.25;2.22;;;10.80;58.00;;;;;;4952301;29;20095;-79
2021/05/25 03:22:38;;;;;;;3.78;2.30;;;10.80;58.00;;;;;;4945389;29;20256;-79
2021/05/25 03:25:07;;;;;;;4.00;2.20;;;10.80;58.00;;;;;;4916523;29;20067;-79
2021/05/25 03:27:33;;;;;;;4.72;1.88;;;10.80;58.10;;;;;;4916431;29;20122;-79
2021/05/25 03:29:59;;;;;;;3.50;2.53;;;10.70;57.90;;;;;;4916590;29;20035;-79
2021/05/25 03:32:25;;;;;;;4.10;2.30;;;10.70;57.90;;;;;;4933488;29;20042;-79
2021/05/25 03:34:51;;;;;;;4.82;2.35;;;10.70;58.00;;;;;;4916593;29;20063;-78
2021/05/25 03:37:17;;;;;;;5.13;2.30;;;10.70;58.00;;;;;;4933539;29;20062;-80
2021/05/25 03:39:43;;;;;;;3.50;1.98;;;10.70;58.10;;;;;;4933763;29;20031;-79
2021/05/25 03:42:09;;;;;;;5.45;2.90;;;10.70;58.20;;;;;;4934168;29;20518;-80
2021/05/25 03:44:35;;;;;;;4.25;2.78;;;10.70;58.20;;;;;;4933500;29;20119;-80
2021/05/25 03:47:01;;;;;;;5.38;2.53;;;10.60;58.00;;;;;;4933584;29;20032;-79
2021/05/25 03:49:27;;;;;;;7.97;2.60;;;10.70;58.30;;;;;;4916239;29;20032;-79
2021/05/25 03:51:53;;;;;;;3.83;2.10;;;10.60;58.10;;;;;;4937258;29;20051;-79
2021/05/25 03:54:21;;;;;;;6.03;2.80;;;10.60;58.10;;;;;;4936807;29;20060;-79
2021/05/25 03:56:59;;;;;;;5.85;2.67;;;10.60;58.20;;;;;;4919861;29;20031;-79
2021/05/25 03:59:26;;;;;;;3.65;2.33;;;10.60;58.20;;;;;;4919046;29;20095;-79
2021/05/25 04:01:52;;;;;;;3.40;2.53;;;10.60;58.20;;;;;;4903831;29;20069;-79
2021/05/25 04:04:18;;;;;;;5.88;2.35;;;10.60;58.30;;;;;;4919861;29;20059;-79
2021/05/25 04:06:44;;;;;;;7.53;2.95;;;10.60;58.50;;;;;;4936474;29;20391;-80
2021/05/25 04:09:10;;;;;;;3.47;2.25;;;10.60;58.30;;;;;;4919302;29;20031;-79
2021/05/25 04:11:36;;;;;;;5.70;2.70;;;10.60;58.30;;;;;;4936364;29;20040;-79
2021/05/25 04:14:04;;;;;;;5.30;2.25;;;10.60;58.30;;;;;;4936555;29;20542;-79
2021/05/25 04:16:30;;;;;;;2.47;2.20;;;10.60;58.40;;;;;;4919436;29;20083;-79
2021/05/25 04:18:56;;;;;;;5.15;2.50;;;10.60;58.90;;;;;;4935180;29;20043;-79
2021/05/25 04:21:22;;;;;;;3.17;2.30;;;10.60;58.40;;;;;;4919111;29;20052;-79
2021/05/25 04:23:48;;;;;;;3.90;2.03;;;10.60;58.40;;;;;;4919175;29;20039;-78
2021/05/25 04:26:14;;;;;;;6.43;3.35;;;10.60;58.40;;;;;;4919386;29;20088;-78
2021/05/25 04:28:40;;;;;;;5.28;2.40;;;10.60;58.40;;;;;;4919358;29;20036;-79
2021/05/25 04:31:06;;;;;;;4.55;2.60;;;10.60;58.40;;;;;;4935828;29;20044;-78
2021/05/25 04:33:32;;;;;;;6.90;2.60;;;10.60;58.40;;;;;;4940832;29;20557;-79
2021/05/25 04:35:58;;;;;;;3.30;2.28;;;10.60;58.40;;;;;;4938423;29;20035;-79
2021/05/25 04:38:24;;;;;;;3.75;2.40;;;10.60;58.40;;;;;;4938171;29;20032;-79
2021/05/25 04:40:50;;;;;;;4.07;2.60;;;10.60;58.50;;;;;;4938299;29;20035;-78
2021/05/25 04:43:16;;;;;;;4.88;2.67;;;10.60;58.50;;;;;;4955680;29;20035;-78
2021/05/25 04:45:43;;;;;;;7.82;2.70;;;10.50;58.30;;;;;;4952272;29;20126;-78
2021/05/25 04:48:10;;;;;;;6.15;2.45;;;10.50;58.30;;;;;;4922164;29;20035;-78
2021/05/25 04:50:38;;;;;;;5.53;2.63;;;10.60;58.50;;;;;;4951854;29;20062;-79
2021/05/25 04:53:05;;;;;;;6.78;2.75;;;10.60;58.60;;;;;;4909644;29;20038;-78
2021/05/25 04:55:31;;;;;;;2.90;2.20;;;10.60;58.60;;;;;;4947680;29;20055;-79
2021/05/25 04:57:56;;;;;;;7.35;2.97;;;10.60;58.60;;;;;;4951987;29;20086;-78
2021/05/25 05:00:25;;;;;;;4.55;2.10;;;10.60;58.60;;;;;;4930911;29;20031;-79
2021/05/25 05:02:52;;;;;;;3.80;2.28;;;10.60;58.60;;;;;;4932160;29;20036;-78
2021/05/25 05:05:18;;;;;;;5.18;2.38;;;10.60;58.60;;;;;;4949889;29;20039;-78
2021/05/25 05:07:44;;;;;;;5.68;2.30;;;10.60;58.60;;;;;;4931209;28;20090;-79
2021/05/25 05:10:11;;;;;;;5.18;2.60;;;10.60;58.60;;;;;;4951905;29;20408;-78
2021/05/25 05:12:37;;;;;;;5.32;2.70;;;10.60;58.60;;;;;;4928835;29;20380;-78
2021/05/25 05:15:05;;;;;;;4.03;2.10;;;10.60;58.70;;;;;;4946207;29;20059;-78
2021/05/25 05:17:32;;;;;;;3.25;2.10;;;10.60;58.60;;;;;;4929229;29;20475;-78
2021/05/25 05:19:58;;;;;;;3.50;2.22;;;10.70;58.80;;;;;;4929927;29;20167;-79
2021/05/25 05:22:24;;;;;;;5.75;2.53;;;10.70;58.80;;;;;;4932695;29;20692;-78
2021/05/25 05:24:51;;;;;;;3.30;1.95;;;10.70;58.80;;;;;;4950176;28;20031;-78
2021/05/25 05:27:17;;;;;;;2.97;2.20;;;10.80;59.00;;;;;;4924220;29;20028;-78
2021/05/25 05:29:43;;;;;;;4.45;2.50;;;10.80;59.00;;;;;;4950134;29;20118;-79
2021/05/25 05:32:09;;;;;;;2.80;1.90;;;10.80;59.00;;;;;;4949890;29;20110;-78
2021/05/25 05:34:35;;;;;;;5.55;2.67;;;10.80;59.00;;;;;;4949545;28;20442;-80
2021/05/25 05:37:01;;;;;;;4.00;2.20;;;10.90;59.10;;;;;;4932833;29;20118;-78
2021/05/25 05:39:27;;;;;;;4.53;2.30;;;10.90;59.20;;;;;;4949864;28;20035;-79
2021/05/25 05:41:54;;;;;;;2.45;1.80;;;11.00;59.30;;;;;;4949268;29;20035;-80
2021/05/25 05:44:20;;;;;;;4.30;2.40;;;11.00;59.30;;;;;;4932913;29;20067;-81
2021/05/25 05:46:46;;;;;;;2.97;1.92;;;11.00;59.30;;;;;;4932982;29;20031;-79
2021/05/25 05:49:12;;;;;;;5.38;2.50;;;11.10;59.50;;;;;;4931863;29;20066;-78
2021/05/25 05:51:38;;;;;;;11.18;2.60;;;11.20;59.70;;;;;;4931858;29;20063;-78
2021/05/25 05:54:04;;;;;;;6.00;3.35;;;11.20;59.80;;;;;;4949109;28;20038;-78
2021/05/25 05:56:30;;;;;;;4.72;2.45;;;11.30;60.10;;;;;;4931816;29;20034;-79
2021/05/25 05:58:56;;;;;;;5.53;2.90;;;11.40;60.40;;;;;;4948345;28;20027;-78
2021/05/25 06:01:22;;;;;;;4.72;2.53;;;11.50;60.70;;;;;;4949145;28;20498;-79
2021/05/25 06:03:48;;;;;;;6.10;2.70;;;11.60;61.00;;;;;;4931718;28;20027;-77
2021/05/25 06:06:14;;;;;;;5.13;2.72;;;11.70;61.20;;;;;;4932468;29;20031;-79
2021/05/25 06:08:41;;;;;;;5.32;2.92;;;11.90;61.50;;;;;;4949233;29;20038;-80
2021/05/25 06:11:08;;;;;;;3.10;2.25;;;12.00;61.80;;;;;;4916145;28;20050;-80
2021/05/25 06:13:35;;;;;;;4.28;2.33;;;12.20;62.10;;;;;;4947792;28;20031;-80
2021/05/25 06:16:03;;;;;;;6.10;3.15;;;12.30;62.20;;;;;;4937656;29;20038;-80
2021/05/25 06:18:31;;;;;;;5.05;2.53;;;12.50;62.60;;;;;;4898342;29;20024;-81
2021/05/25 06:20:58;;;;;;;5.22;2.72;;;12.70;62.90;;;;;;4931963;29;20470;-82
2021/05/25 06:23:24;;;;;;;6.85;2.90;;;12.90;63.20;;;;;;4947438;28;20358;-79
2021/05/25 06:25:51;;;;;;;4.35;2.13;;;13.10;63.50;;;;;;4950543;28;20039;-81
2021/05/25 06:28:17;;;;;;;5.85;2.65;;;13.30;63.70;;;;;;4949836;28;20032;-80
2021/05/25 06:30:44;;;;;;;5.75;2.72;;;13.60;64.50;;;;;;4932083;29;20106;-81
2021/05/25 06:33:11;;;;;;;4.68;2.78;;;13.90;65.20;;;;;;4916365;29;20030;-80
2021/05/25 06:35:37;;;;;;;4.07;2.60;;;14.20;65.50;;;;;;4949710;29;20035;-80
2021/05/25 06:38:03;;;;;;;3.10;2.17;;;14.50;65.90;;;;;;4947991;29;20479;-80
2021/05/25 06:40:29;;;;;;;4.38;2.30;;;14.90;66.20;;;;;;4931341;28;20039;-84
2021/05/25 06:42:55;;;;;;;3.78;2.42;;;15.20;66.40;;;;;;4948565;28;20495;-83
2021/05/25 06:45:22;;;;;;;4.32;2.30;;;15.60;66.70;;;;;;4949022;28;20093;-82
2021/05/25 06:47:48;;;;;;;6.60;2.63;;;15.90;66.70;;;;;;4931989;28;20031;-82
2021/05/25 06:50:14;;;;;;;10.65;2.72;;;16.20;66.80;;;;;;4949095;28;20043;-82
2021/05/25 06:52:41;;;;;;;5.50;2.65;;;16.50;66.80;;;;;;4931219;29;20031;-81
2021/05/25 06:55:09;;;;;;;6.35;2.13;;;16.80;66.80;;;;;;4931636;28;20114;-81
2021/05/25 06:57:36;;;;;;;4.78;2.50;;;17.10;66.80;;;;;;4949391;28;20028;-84
2021/05/25 07:00:05;;;;;;;7.00;2.80;;;17.40;66.80;;;;;;4948900;28;20518;-82
2021/05/25 07:02:31;;;;;;;5.28;2.50;;;17.70;66.80;;;;;;4948998;28;20053;-82
2021/05/25 07:04:57;;;;;;;5.82;2.17;;;18.00;66.80;;;;;;4931571;29;20530;-83
2021/05/25 07:07:23;;;;;;;5.50;2.30;;;18.20;66.50;;;;;;4931315;29;20031;-83
2021/05/25 07:09:49;;;;;;;4.07;1.70;;;18.50;66.50;;;;;;4949200;29;20509;-82
2021/05/25 07:12:15;;;;;;;4.28;2.38;;;18.80;66.50;;;;;;4948676;28;20039;-82
2021/05/25 07:14:42;;;;;;;4.88;2.10;;;19.00;66.40;;;;;;4948879;28;20039;-82
2021/05/25 07:17:08;;;;;;;3.22;1.70;;;19.30;67.00;;;;;;4948272;28;20047;-81
2021/05/25 07:19:34;;;;;;;3.20;2.15;;;19.50;66.30;;;;;;4931031;28;20054;-81
2021/05/25 07:22:01;;;;;;;5.22;2.00;;;19.80;66.30;;;;;;4931745;29;20043;-81
2021/05/25 07:24:27;;;;;;;3.67;1.92;;;20.00;66.00;;;;;;4948722;28;20054;-82
2021/05/25 07:26:53;;;;;;;3.72;1.98;;;20.20;65.90;;;;;;4935611;29;20094;-81
2021/05/25 07:29:20;;;;;;;3.80;1.60;;;20.50;65.90;;;;;;4952651;28;20027;-82
2021/05/25 07:31:46;;;;;;;2.72;1.80;;;20.70;65.80;;;;;;4952623;28;20479;-83
2021/05/25 07:34:12;;;;;;;5.20;1.58;;;20.90;65.60;;;;;;4952436;28;20035;-82
2021/05/25 07:36:38;;;;;;;2.15;1.45;;;21.10;65.50;;;;;;4935237;29;20517;-82
2021/05/25 07:39:05;;;;;;;4.57;1.90;;;21.40;65.40;;;;;;4952082;28;20027;-83
2021/05/25 07:41:32;;;;;;;6.03;1.88;;;21.60;65.20;;;;;;4952394;29;20475;-81
2021/05/25 07:43:58;;;;;;;2.22;1.52;;;21.90;65.00;;;;;;4934779;29;20110;-82
2021/05/25 07:46:25;;;;;;;4.13;1.80;;;22.10;64.80;;;;;;4919364;29;20042;-82
2021/05/25 07:48:52;;;;;;;2.80;1.35;;;22.30;64.50;;;;;;4952201;29;20443;-80
2021/05/25 07:51:19;;;;;;;3.38;1.75;;;22.60;64.40;;;;;;4951786;28;20039;-81
2021/05/25 07:53:45;;;;;;;2.15;1.50;;;22.90;64.20;;;;;;4939019;29;20027;-81
2021/05/25 07:56:12;;;;;;;3.03;1.70;;;23.10;63.90;;;;;;4932590;29;20039;-83
2021/05/25 07:58:38;;;;;;;2.90;1.48;;;23.40;63.80;;;;;;4942434;28;20391;-85
2021/05/25 08:01:04;;;;;;;3.70;1.70;;;23.60;63.40;;;;;;4934893;28;20039;-82
2021/05/25 08:03:31;;;;;;;3.67;1.48;;;23.80;63.00;;;;;;4934543;29;20031;-81
2021/05/25 08:06:00;;;;;;;2.80;1.73;;;23.90;62.70;;;;;;4952785;28;20039;-84
2021/05/25 08:08:29;;;;;;;4.13;1.70;;;24.10;62.60;;;;;;4951044;28;20035;-83
2021/05/25 08:10:56;;;;;;;1.38;1.15;;;24.30;62.20;;;;;;4934347;29;20035;-82
2021/05/25 08:13:23;;;;;;;3.15;1.70;;;24.60;61.90;;;;;;4934391;28;20061;-84
2021/05/25 08:15:50;;;;;;;2.83;1.67;;;24.90;61.70;;;;;;4952024;28;20394;-81
2021/05/25 08:20:49;;;;;;;3.78;2.38;;;25.60;60.40;;;;;;4951216;28;20062;-82
2021/05/25 08:23:15;;;;;;;2.03;1.60;;;25.90;59.90;;;;;;4951469;28;20031;-81
2021/05/25 08:25:43;;;;;;;3.28;1.90;;;26.20;59.00;;;;;;4951390;28;20290;-81
2021/05/25 08:28:11;;;;;;;2.92;1.77;;;26.60;57.90;;;;;;4945048;28;20388;-87
2021/05/25 08:30:40;;;;;;;3.47;2.90;;;27.00;56.70;;;;;;4932496;29;20043;-82
2021/05/25 08:33:08;;;;;;;4.88;2.95;;;27.40;55.60;;;;;;4932573;29;20063;-83
2021/05/25 08:35:37;;;;;;;2.63;1.95;;;27.80;54.60;;;;;;4931874;29;20053;-83
2021/05/25 08:38:05;;;;;;;3.95;2.42;;;28.10;53.80;;;;;;4937268;29;20066;-82
2021/05/25 08:40:33;;;;;;;5.15;2.30;;;28.40;53.00;;;;;;4934087;29;20467;-82
2021/05/25 08:42:59;;;;;;;2.30;1.75;;;28.60;52.30;;;;;;4917680;28;20117;-82
2021/05/25 08:45:26;;;;;;;3.38;1.90;;;28.80;51.90;;;;;;4951157;29;20061;-82
2021/05/25 08:47:54;;;;;;;2.90;1.70;;;28.90;51.40;;;;;;4933705;29;20038;-81
2021/05/25 08:50:25;;;;;;;2.70;1.80;;;29.00;50.80;;;;;;4934209;28;20058;-80
2021/05/25 08:52:57;;;;;;;4.10;1.50;;;29.10;50.50;;;;;;4933329;29;20505;-80
2021/05/25 08:55:23;;;;;;;2.00;1.45;;;29.00;50.30;;;;;;4934134;29;20059;-80
2021/05/25 08:57:49;;;;;;;3.90;2.03;;;28.90;50.30;;;;;;4950660;28;20551;-81
2021/05/25 09:00:16;;;;;;;2.53;1.70;;;28.50;50.40;;;;;;4950728;28;20035;-81
2021/05/25 09:02:42;;;;;;;2.67;1.70;;;28.10;51.00;;;;;;4933609;29;20038;-81
2021/05/25 09:05:21;;;;;;;3.47;1.88;;;27.80;51.30;;;;;;4950863;28;20538;-79
2021/05/25 09:07:49;;;;;;;2.45;1.60;;;27.40;51.50;;;;;;4950876;29;20599;-79
2021/05/25 09:10:32;;;;;;;2.17;1.45;;;27.00;52.10;;;;;;4950355;28;20031;-81
2021/05/25 09:12:59;;;;;;;3.78;1.80;;;26.60;52.60;;;;;;4917501;29;20047;-81
2021/05/25 09:15:36;;;;;;;1.95;1.48;;;26.30;53.20;;;;;;4933999;29;20040;-81
2021/05/25 09:18:16;;;;;;;2.70;1.55;;;26.10;53.50;;;;;;4917442;29;20399;-81
2021/05/25 09:20:50;;;;;;;2.20;1.40;;;25.90;53.60;;;;;;4951235;29;20054;-82
2021/05/25 09:23:44;;;;;;;2.28;1.48;;;25.70;53.60;;;;;;4950612;28;20035;-83
2021/05/25 09:26:14;;;;;;;3.90;1.60;;;25.50;53.90;;;;;;4950456;29;20058;-82
2021/05/25 09:29:02;;;;;;;2.38;1.30;;;25.10;54.30;;;;;;4949999;28;20126;-80
2021/05/25 09:31:39;;;;;;;3.25;1.63;;;24.90;54.60;;;;;;4917176;29;20094;-82
2021/05/25 09:34:20;;;;;;;2.17;1.55;;;24.70;54.70;;;;;;4933000;28;20546;-81
2021/05/25 09:37:08;;;;;;;2.17;1.35;;;24.60;54.80;;;;;;4933217;29;20050;-81
2021/05/25 09:39:40;;;;;;;2.80;1.58;;;24.70;55.00;;;;;;4932817;29;20506;-81
2021/05/25 09:42:08;;;;;;;2.80;1.33;;;24.80;55.00;;;;;;4933341;29;20023;-82
2021/05/25 09:44:36;;;;;;;3.38;1.15;;;25.00;55.20;;;;;;4916890;29;20035;-83
2021/05/25 09:47:04;;;;;;;3.05;1.42;;;25.10;55.20;;;;;;4950089;28;20031;-81
2021/05/25 09:49:31;;;;;;;2.55;1.45;;;25.30;55.10;;;;;;4932369;29;20549;-81
2021/05/25 09:52:09;;;;;;;4.00;1.75;;;25.40;55.00;;;;;;4917308;28;20039;-80
2021/05/25 09:54:36;;;;;;;2.47;1.30;;;25.60;54.90;;;;;;4949625;28;20454;-82
2021/05/25 09:57:04;;;;;;;1.20;1.10;;;25.70;54.90;;;;;;4933016;28;20035;-85
2021/05/25 09:59:35;;;;;;;1.77;1.20;;;25.80;54.80;;;;;;4933169;29;20031;-82
2021/05/25 10:02:21;;;;;;;2.22;1.10;;;25.80;54.60;;;;;;4950063;28;20035;-84
2021/05/25 10:05:02;;;;;;;1.92;1.23;;;25.80;54.60;;;;;;4879298;29;20032;-84
2021/05/25 10:07:29;;;;;;;2.85;1.42;;;25.90;54.50;;;;;;4911734;29;20036;-82
2021/05/25 10:09:57;;;;;;;1.90;1.45;;;25.90;54.50;;;;;;4950169;29;20098;-84
2021/05/25 10:12:27;;;;;;;1.88;1.25;;;26.10;54.50;;;;;;4949892;29;20222;-84
2021/05/25 10:14:55;;;;;;;1.80;1.20;;;26.30;54.50;;;;;;4949283;28;20031;-82
2021/05/25 10:20:04;;;;;;;2.63;1.33;;;26.60;54.10;;;;;;4932804;29;20058;-83
2021/05/25 10:22:30;;;;;;;1.52;1.30;;;26.70;54.00;;;;;;4949414;28;20031;-82
2021/05/25 10:24:57;;;;;;;2.60;1.35;;;26.80;53.90;;;;;;4949420;28;20113;-79
2021/05/25 10:27:28;;;;;;;3.90;1.40;;;26.80;53.70;;;;;;4932275;29;20094;-80
2021/05/25 10:29:54;;;;;;;3.22;1.60;;;26.80;53.70;;;;;;4931713;28;20086;-79
2021/05/25 10:32:25;;;;;;;4.13;1.70;;;26.90;54.40;;;;;;4949184;28;20534;-82
2021/05/25 10:34:53;;;;;;;2.83;1.60;;;27.00;53.60;;;;;;4931515;29;20032;-80
2021/05/25 10:37:20;;;;;;;2.15;1.35;;;27.10;53.50;;;;;;4916596;29;20069;-83
2021/05/25 10:39:55;;;;;;;2.40;1.17;;;27.10;53.30;;;;;;4931571;29;20051;-81
2021/05/25 10:42:26;;;;;;;2.00;1.38;;;27.20;53.20;;;;;;4915396;28;20491;-84
2021/05/25 10:45:01;;;;;;;4.25;1.85;;;27.40;53.20;;;;;;4915994;29;20027;-83
2021/05/25 10:47:49;;;;;;;3.75;1.77;;;27.50;53.00;;;;;;4916015;29;20035;-84
2021/05/25 10:52:53;;;;;;;3.88;1.75;;;27.50;52.90;;;;;;4916047;29;20043;-83
2021/05/25 10:55:35;;;;;;;3.25;1.50;;;27.50;53.10;;;;;;4915823;28;20090;-83
2021/05/25 10:58:35;;;;;;;3.63;2.08;;;27.50;53.10;;;;;;4916552;29;20039;-83
2021/05/25 11:01:07;;;;;;;3.00;1.92;;;27.40;53.10;;;;;;4935621;29;20031;-82
2021/05/25 11:03:33;;;;;;;3.80;1.90;;;27.40;53.30;;;;;;4919914;28;20027;-83
2021/05/25 11:06:01;;;;;;;2.47;1.67;;;27.30;53.30;;;;;;4919597;29;20110;-83
2021/05/25 11:08:39;;;;;;;2.35;1.73;;;27.20;53.40;;;;;;4919771;29;20027;-84
2021/05/25 11:11:10;;;;;;;4.72;2.15;;;27.10;53.40;;;;;;4919260;29;20398;-83
2021/05/25 11:13:40;;;;;;;3.63;1.88;;;27.00;53.50;;;;;;4919303;29;20118;-83
2021/05/25 11:16:24;;;;;;;2.08;1.30;;;27.00;53.70;;;;;;4919476;28;20035;-82
2021/05/25 11:24:31;;;;;;;3.03;1.90;;;26.90;53.70;;;;;;4925042;29;20036;-81
2021/05/25 11:27:00;;;;;;;3.00;1.80;;;26.90;53.70;;;;;;4919479;29;20123;-81
2021/05/25 11:29:31;;;;;;;3.72;2.10;;;26.90;53.80;;;;;;4952493;28;20031;-80
2021/05/25 11:32:00;;;;;;;4.07;2.25;;;26.90;53.80;;;;;;4952495;29;20070;-82
2021/05/25 11:34:28;;;;;;;4.88;2.40;;;26.90;53.80;;;;;;4952604;28;20027;-82
2021/05/25 11:37:00;;;;;;;4.53;2.20;;;27.00;53.80;;;;;;4934860;29;20406;-81
2021/05/25 11:39:28;;;;;;;5.43;2.40;;;27.10;53.80;;;;;;4935456;29;20443;-81
2021/05/25 11:41:56;;;;;;;3.40;2.03;;;27.20;53.60;;;;;;4919104;29;20521;-81
2021/05/25 11:44:34;;;;;;;6.07;2.10;;;27.30;53.50;;;;;;4919293;28;20120;-82
2021/05/25 11:47:05;;;;;;;3.53;1.80;;;27.40;53.30;;;;;;4918878;29;20046;-82
2021/05/25 11:49:39;;;;;;;9.95;3.15;;;27.40;53.30;;;;;;4919221;29;20490;-83
2021/05/25 11:52:29;;;;;;;10.15;4.22;;;27.30;52.00;;;;;;4934909;29;20463;-82
2021/05/25 11:55:05;;;;;;;14.50;4.25;;;27.00;50.80;;;;;;4881521;29;20040;-82
2021/05/25 11:57:52;;;;;;;12.18;4.53;;;26.60;50.80;;;;;;4881795;29;20048;-82
2021/05/25 12:00:22;;;;;;;12.80;3.72;;;26.30;51.10;;;;;;4919223;29;20023;-82
2021/05/25 12:02:49;;;;;;;13.02;3.97;;;26.10;51.30;;;;;;4919006;29;20034;-83
2021/05/25 12:05:29;;;;;;;10.85;4.35;;;25.80;51.40;;;;;;4952097;29;20027;-83
2021/05/25 12:08:06;;;;;;;8.57;3.20;;;25.60;51.50;;;;;;4934218;29;20039;-83
2021/05/25 12:10:43;;;;;;;17.05;4.20;;;25.40;51.80;;;;;;4933918;29;20035;-84
2021/05/25 12:13:14;;;;;;;11.20;3.40;;;25.20;52.10;;;;;;4934156;29;20063;-84
2021/05/25 12:15:42;;;;;;;8.90;3.20;;;25.00;52.30;;;;;;4934339;29;20045;-83
2021/05/25 12:18:13;;;;;;;9.30;3.45;;;24.90;53.00;;;;;;4933907;29;20059;-83
2021/05/25 12:20:42;;;;;;;8.52;3.30;;;24.80;52.40;;;;;;4952091;29;20110;-83
2021/05/25 12:23:10;;;;;;;9.93;3.38;;;24.70;52.50;;;;;;4918494;29;20140;-83
2021/05/25 12:25:37;;;;;;;12.07;3.40;;;24.60;52.60;;;;;;4934446;29;20042;-82
2021/05/25 12:28:10;;;;;;;10.35;3.38;;;24.50;52.70;;;;;;4918262;29;20074;-82
2021/05/25 12:30:39;;;;;;;10.07;3.22;;;24.40;52.70;;;;;;4934972;28;20046;-83
2021/05/25 12:33:05;;;;;;;12.77;3.67;;;24.30;52.80;;;;;;4902178;29;20055;-82
2021/05/25 12:35:32;;;;;;;7.22;2.95;;;24.20;52.80;;;;;;4918506;29;20494;-79
2021/05/25 12:38:09;;;;;;;9.25;3.40;;;24.10;52.90;;;;;;4917667;28;20123;-80
2021/05/25 12:40:36;;;;;;;8.60;3.47;;;24.00;53.00;;;;;;4918043;29;20093;-81
2021/05/25 12:43:22;;;;;;;8.15;3.00;;;23.80;52.90;;;;;;4918435;29;20470;-80
2021/05/25 12:45:49;;;;;;;6.95;2.72;;;23.70;53.10;;;;;;4919223;29;20049;-81
2021/05/25 12:48:16;;;;;;;9.73;3.20;;;23.50;53.10;;;;;;4917804;29;20023;-81
2021/05/25 12:50:43;;;;;;;8.40;2.92;;;23.30;53.10;;;;;;4918293;29;20043;-81
2021/05/25 12:53:18;;;;;;;8.45;3.83;;;23.20;53.90;;;;;;4933352;29;20027;-83
2021/05/25 12:55:53;;;;;;;7.82;3.25;;;23.00;53.30;;;;;;4934245;28;20135;-82
2021/05/25 12:58:41;;;;;;;10.55;3.40;;;22.80;53.40;;;;;;4951135;28;20391;-82
2021/05/25 13:01:29;;;;;;;8.48;3.33;;;22.70;53.50;;;;;;4934109;29;20042;-81
2021/05/25 13:04:06;;;;;;;9.40;3.17;;;22.60;53.60;;;;;;4933198;28;20495;-83
2021/05/25 13:07:08;;;;;;;8.85;3.40;;;22.50;53.70;;;;;;4917971;29;20034;-84